• NOTAM LFNA

     05/12 02:47Z - 09/12/22 11:59Z
    PARKING 'CEUZE' RESERVE AUX AERONEFS BASES.

    NOTAM LFMA

    Service NotamWeb du SIA indisponible - NOTAMS inconnus

    NOTAM LFMV

    Service NotamWeb du SIA indisponible - NOTAMS inconnus











  • PHOTOS SATELLITE

CARTE TEMSI

CARTE WINTEM

  • Vent au sol

  • Vent à 5000ft

  • ANIMATION RADAR

  • METAR/TAF LFMV (AVIGNON / Caumont)

    LFMV 071400Z AUTO 34022G34KT CAVOK 07/01 Q1012 NOSIG

    TAF LFMV 070800Z 0709/0809 35015KT CAVOK TEMPO 0709/0719 35015G25KT BECMG 0801/0803 1500 BR TEMPO 0804/0808 0300 FG VV/// BECMG 0807/0808 CAVOK

    METAR/TAF LFLS (GRENOBLE / Saint-Geoirs)

    LFLS 071400Z AUTO 33006KT 8000 OVC009 02/01 Q1015 BECMG OVC012

    TAF LFLS 070800Z 0709/0809 34005KT 7000 OVC012 TEMPO 0719/0809 OVC008

    METAR/TAF LFML (MARSEILLE-PROVENCE)

    LFML 071400Z AUTO 32014KT CAVOK 09/02 Q1011 NOSIG

    TAF LFML 070800Z 0709/0815 32010KT CAVOK TX10/0712Z TN00/0804Z BECMG 0722/0724 10005KT TEMPO 0804/0809 RA BKN026 BECMG 0809/0810 3000 RA BKN015

RESERVATION